createdAt,value
2022-12-13T08:05:26.768Z,89.56
2022-12-13T08:07:40.329Z,88.78
2022-12-13T08:10:06.704Z,87.72
2022-12-13T08:12:33.056Z,88.43
2022-12-13T08:14:59.387Z,87.76
2022-12-13T08:17:25.731Z,87.85
2022-12-13T08:19:52.089Z,87.74
2022-12-13T08:22:24.103Z,87.89
2022-12-13T08:24:44.778Z,87.05
2022-12-13T08:27:11.164Z,87.08
2022-12-13T08:29:37.517Z,89.41
2022-12-13T08:32:03.964Z,90.44
2022-12-13T08:34:30.312Z,89.19
2022-12-13T08:37:01.446Z,91.87
2022-12-13T08:39:22.970Z,90.79
2022-12-13T08:41:49.390Z,89.89
2022-12-13T08:44:15.723Z,89.08
2022-12-13T08:46:42.127Z,88.84
2022-12-13T08:49:08.494Z,88.03
2022-12-13T08:51:35.793Z,87.47
2022-12-13T08:54:10.392Z,82.84
2022-12-13T08:56:27.611Z,78.37
2022-12-13T08:58:53.972Z,75.71
2022-12-13T09:01:20.336Z,72.56
2022-12-13T09:03:46.633Z,69.94
2022-12-13T09:06:13.107Z,68.26
2022-12-13T09:08:39.476Z,68.45
2022-12-13T09:11:10.475Z,70.35
2022-12-13T09:13:33.027Z,68.64
2022-12-13T09:16:01.536Z,66.85
2022-12-13T09:18:26.957Z,64.54
2022-12-13T09:20:51.333Z,64.78
2022-12-13T09:23:23.627Z,64.38
2022-12-13T09:25:50.069Z,62.96
2022-12-13T09:28:10.397Z,60.55
2022-12-13T09:30:36.775Z,61.02
2022-12-13T09:33:25.289Z,60.81
2022-12-13T09:35:29.480Z,60.80
2022-12-13T09:37:55.858Z,60.33
2022-12-13T09:40:25.401Z,61.58
2022-12-13T09:42:48.590Z,63.98
2022-12-13T09:45:22.377Z,63.84
2022-12-13T09:47:46.879Z,60.45
2022-12-13T09:50:07.636Z,58.39
2022-12-13T09:52:33.912Z,57.82
2022-12-13T09:55:00.252Z,56.86
2022-12-13T09:57:31.253Z,57.68
2022-12-13T09:59:57.231Z,58.94
2022-12-13T10:02:19.342Z,58.38
2022-12-13T10:04:45.718Z,58.83
2022-12-13T10:07:12.036Z,58.65
2022-12-13T10:09:38.411Z,58.46
2022-12-13T10:12:04.813Z,58.80
2022-12-13T10:14:31.207Z,59.86
2022-12-13T10:16:57.556Z,58.47
2022-12-13T10:19:29.369Z,58.80
2022-12-13T10:21:50.283Z,58.70
2022-12-13T10:24:26.293Z,57.46
2022-12-13T10:26:42.968Z,55.33
2022-12-13T10:29:09.251Z,56.77
2022-12-13T10:31:35.647Z,55.88
2022-12-13T10:34:01.991Z,53.78
2022-12-13T10:36:28.298Z,56.10
2022-12-13T10:38:54.690Z,54.30
2022-12-13T10:41:21.042Z,54.99
2022-12-13T10:43:47.394Z,54.49
2022-12-13T10:46:13.801Z,52.74
2022-12-13T10:48:40.102Z,53.98
2022-12-13T10:51:06.455Z,56.32
2022-12-13T10:53:32.829Z,59.53
2022-12-13T10:56:02.459Z,60.85
2022-12-13T10:58:25.548Z,60.18
2022-12-13T11:00:51.942Z,58.75
2022-12-13T11:03:19.247Z,59.40
2022-12-13T11:05:45.634Z,57.59
2022-12-13T11:08:11.995Z,56.74
2022-12-13T11:10:38.303Z,56.67
2022-12-13T11:13:04.679Z,55.29
2022-12-13T11:15:31.049Z,54.30
2022-12-13T11:17:57.371Z,53.87
2022-12-13T11:20:23.734Z,55.13
2022-12-13T11:22:50.110Z,53.54
2022-12-13T11:25:16.429Z,54.62
2022-12-13T11:27:43.009Z,55.26
2022-12-13T11:30:09.282Z,53.65
2022-12-13T11:32:35.669Z,53.54
2022-12-13T11:35:04.500Z,54.44
2022-12-13T11:37:28.495Z,54.05
2022-12-13T11:40:01.881Z,52.32
2022-12-13T11:42:21.306Z,53.57
2022-12-13T11:44:48.220Z,53.24
2022-12-13T11:47:13.990Z,52.38
2022-12-13T11:49:40.299Z,52.74
2022-12-13T11:52:06.687Z,50.74
2022-12-13T11:54:33.162Z,51.09
2022-12-13T11:57:00.371Z,53.57
2022-12-13T11:59:27.158Z,55.15
2022-12-13T12:01:52.219Z,55.01
2022-12-13T12:04:18.542Z,55.36
2022-12-13T12:06:47.284Z,56.77
2022-12-13T12:09:11.287Z,57.59
2022-12-13T12:11:37.636Z,56.60
2022-12-13T12:14:03.988Z,55.61
2022-12-13T12:16:30.424Z,56.81
2022-12-13T12:19:01.304Z,57.00
2022-12-13T12:21:23.119Z,56.81
2022-12-13T12:23:52.630Z,56.12
2022-12-13T12:26:15.782Z,56.76
2022-12-13T12:28:44.126Z,56.82
2022-12-13T12:31:08.518Z,56.58
2022-12-13T12:33:34.818Z,56.80
2022-12-13T12:36:01.166Z,56.70
2022-12-13T12:38:28.121Z,55.51
2022-12-13T12:41:15.557Z,54.72
2022-12-13T12:43:20.212Z,54.08
2022-12-13T12:45:56.397Z,54.45
2022-12-13T12:50:43.139Z,54.58
2022-12-13T12:53:05.690Z,55.63
2022-12-13T12:55:32.076Z,56.22
2022-12-13T12:57:58.439Z,56.45
2022-12-13T13:00:24.947Z,55.47
2022-12-13T13:02:51.374Z,54.87
2022-12-13T13:05:17.621Z,55.36
2022-12-13T13:07:44.015Z,55.40
2022-12-13T13:10:16.247Z,55.27
2022-12-13T13:12:36.672Z,55.26
2022-12-13T13:15:03.054Z,56.05
2022-12-13T13:17:29.372Z,57.22
2022-12-13T13:20:05.404Z,58.12
2022-12-13T14:02:07.846Z,72.88
2022-12-13T14:04:34.139Z,72.73
2022-12-13T14:07:01.247Z,71.85
2022-12-13T14:09:26.840Z,71.83
2022-12-13T14:11:53.161Z,72.41
2022-12-13T14:14:21.803Z,72.54
2022-12-13T14:16:45.883Z,74.15
2022-12-13T14:19:12.284Z,76.15
2022-12-13T14:21:38.710Z,77.15
2022-12-13T14:24:05.054Z,77.74
2022-12-13T14:26:31.412Z,78.40
2022-12-13T14:28:57.793Z,79.55
2022-12-13T14:31:24.137Z,80.45
2022-12-13T14:33:50.440Z,80.72
2022-12-13T14:36:16.799Z,80.59
2022-12-13T14:38:43.170Z,81.30
2022-12-13T14:41:12.513Z,81.86
2022-12-13T14:43:38.843Z,81.86
2022-12-13T14:46:05.199Z,81.97
2022-12-13T14:48:31.534Z,81.67
2022-12-13T14:50:57.894Z,81.61
2022-12-13T14:53:24.608Z,81.99
2022-12-13T14:55:50.615Z,82.77
2022-12-13T14:58:16.953Z,82.64
2022-12-13T15:00:43.431Z,82.39
2022-12-13T15:03:09.673Z,83.08
2022-12-13T15:05:35.982Z,82.95
2022-12-13T15:08:10.921Z,83.33
2022-12-13T15:10:28.707Z,82.97
2022-12-13T15:12:55.040Z,83.29
2022-12-13T15:15:21.454Z,83.79
2022-12-13T15:17:47.828Z,83.44
2022-12-13T15:20:14.298Z,82.36
2022-12-13T15:22:40.616Z,81.67
2022-12-13T15:25:06.968Z,81.53
2022-12-13T15:27:33.341Z,82.24
2022-12-13T15:29:59.698Z,83.11
2022-12-13T15:32:26.077Z,83.19
2022-12-13T15:34:52.441Z,83.12
2022-12-13T15:37:28.624Z,83.20
2022-12-13T15:39:47.967Z,83.55
2022-12-13T15:42:11.448Z,83.71
2022-12-13T15:44:37.764Z,83.85
2022-12-13T15:47:04.186Z,83.67
2022-12-13T15:49:30.505Z,83.59
2022-12-13T15:51:56.852Z,83.47
2022-12-13T15:54:23.303Z,83.82
2022-12-13T15:56:49.641Z,84.16
2022-12-13T15:59:16.007Z,84.31
2022-12-13T16:01:42.401Z,84.25
2022-12-13T16:04:08.708Z,83.79
2022-12-13T16:06:35.102Z,83.92
2022-12-13T16:09:01.538Z,83.63
2022-12-13T16:11:27.859Z,84.28
2022-12-13T16:13:58.509Z,84.49
2022-12-13T16:16:26.669Z,84.30
2022-12-13T16:18:46.891Z,85.00
2022-12-13T16:21:13.300Z,85.73
2022-12-13T16:23:39.613Z,85.59
2022-12-13T16:26:09.207Z,85.68
2022-12-13T16:28:32.335Z,85.44
2022-12-13T16:30:58.733Z,85.66
2022-12-13T16:33:26.521Z,85.50
2022-12-13T16:35:51.418Z,85.50
2022-12-13T16:38:26.476Z,85.63
2022-12-13T16:40:44.098Z,85.49
2022-12-13T16:43:10.434Z,85.88
2022-12-13T16:45:43.803Z,86.31
2022-12-13T16:48:03.199Z,86.63
2022-12-13T16:50:29.526Z,87.13
2022-12-13T16:52:55.879Z,86.94
2022-12-13T16:55:22.276Z,86.50
2022-12-13T16:57:48.678Z,86.42
2022-12-13T17:00:15.063Z,86.63
2022-12-13T17:02:41.432Z,87.06
2022-12-13T17:05:07.804Z,87.57
2022-12-13T17:07:34.308Z,88.51
2022-12-13T17:10:00.602Z,88.99
2022-12-13T17:12:26.923Z,89.71
2022-12-13T17:14:53.305Z,90.73
2022-12-13T17:17:19.713Z,91.62
2022-12-13T17:19:46.046Z,93.23
2022-12-13T17:22:12.357Z,94.25
2022-12-13T17:24:38.738Z,94.80
2022-12-13T17:27:05.114Z,95.18
2022-12-13T17:29:31.503Z,95.56
2022-12-13T17:31:57.852Z,95.72
2022-12-13T17:34:24.243Z,95.89
2022-12-13T17:36:50.613Z,96.34
2022-12-13T17:39:17.001Z,96.11
2022-12-13T17:41:43.299Z,96.25
2022-12-13T17:44:09.722Z,96.18
2022-12-13T17:46:36.102Z,96.14
2022-12-13T17:49:02.409Z,96.40
2022-12-13T17:51:28.791Z,96.83
2022-12-13T17:53:55.125Z,97.14
2022-12-13T17:56:21.501Z,97.29
2022-12-13T17:58:47.845Z,97.38
2022-12-13T18:01:14.224Z,97.58
2022-12-13T18:03:40.525Z,97.51
2022-12-13T18:06:06.840Z,97.27
2022-12-13T18:08:33.198Z,96.69
2022-12-13T18:11:30.772Z,96.33
2022-12-13T18:13:26.306Z,96.23
2022-12-13T18:15:52.320Z,96.28
2022-12-13T18:18:18.649Z,95.63
2022-12-13T18:20:45.085Z,96.03
2022-12-13T18:23:11.381Z,96.47
2022-12-13T18:25:37.743Z,96.33
2022-12-13T18:28:04.084Z,96.22
2022-12-13T18:30:30.426Z,96.39
2022-12-13T18:32:57.393Z,96.05
2022-12-13T18:35:23.711Z,95.75
2022-12-13T18:37:50.094Z,95.63
2022-12-13T18:40:16.420Z,95.51
2022-12-13T18:42:44.511Z,95.54
2022-12-13T18:45:09.155Z,95.80
2022-12-13T18:47:35.549Z,95.98
2022-12-13T18:50:01.896Z,96.16
2022-12-13T18:52:28.306Z,96.57
2022-12-13T18:54:54.954Z,96.76
2022-12-13T18:57:21.004Z,97.16
2022-12-13T18:59:54.454Z,97.27
2022-12-13T19:02:13.714Z,97.33
2022-12-13T19:04:40.032Z,97.71
2022-12-13T19:07:06.462Z,97.82
2022-12-13T19:09:32.775Z,98.00
2022-12-13T19:11:59.110Z,98.13
2022-12-13T19:14:27.265Z,98.02
2022-12-13T19:16:51.839Z,97.83
2022-12-13T19:19:18.198Z,97.76
2022-12-13T19:21:44.543Z,97.68
2022-12-13T19:24:11.070Z,97.68
2022-12-13T19:26:37.257Z,97.19
2022-12-13T19:29:03.639Z,96.64
2022-12-13T19:31:32.272Z,96.45
2022-12-13T19:33:56.326Z,96.06
2022-12-13T19:36:22.662Z,95.91
2022-12-13T19:38:49.014Z,95.70
2022-12-13T19:41:15.375Z,95.55
2022-12-13T19:43:41.692Z,94.71
2022-12-13T19:46:08.131Z,94.73
2022-12-13T19:48:34.414Z,94.49
2022-12-13T19:51:00.750Z,94.33
2022-12-13T19:53:27.488Z,94.46
2022-12-13T19:55:53.447Z,94.64
2022-12-13T19:58:19.792Z,94.01
2022-12-13T20:00:46.188Z,93.97
2022-12-13T20:03:12.516Z,93.47
2022-12-13T20:05:43.935Z,93.08
2022-12-13T20:08:05.160Z,92.75
2022-12-13T20:10:31.538Z,92.46
2022-12-13T20:12:57.885Z,92.42
2022-12-13T20:15:24.259Z,92.00
2022-12-13T20:17:50.568Z,91.98
2022-12-13T20:20:16.964Z,92.33
2022-12-13T20:22:43.297Z,92.01
2022-12-13T20:25:09.627Z,92.08
2022-12-13T20:27:35.999Z,92.08
2022-12-13T20:30:02.378Z,91.95
2022-12-13T20:32:28.729Z,92.07
2022-12-13T20:34:55.315Z,91.98
2022-12-13T20:37:21.482Z,92.01
2022-12-13T20:39:47.831Z,91.91
2022-12-13T20:42:14.133Z,92.04
2022-12-13T20:44:40.501Z,92.20
2022-12-13T20:47:06.863Z,92.34
2022-12-13T20:49:33.150Z,92.20
2022-12-13T20:51:59.507Z,91.77
2022-12-13T20:54:25.966Z,91.86
2022-12-13T20:56:52.316Z,92.18
2022-12-13T20:59:18.690Z,92.10
2022-12-13T21:01:45.078Z,91.99
2022-12-13T21:04:11.392Z,91.77
2022-12-13T21:06:37.783Z,91.68
2022-12-13T21:09:04.196Z,91.59
2022-12-13T21:11:30.559Z,91.30
2022-12-13T21:13:57.659Z,90.97
2022-12-13T21:16:23.344Z,90.76
2022-12-13T21:18:49.646Z,90.10
2022-12-13T21:21:15.991Z,89.93
2022-12-13T21:23:42.328Z,89.53
2022-12-13T21:26:08.658Z,89.23
2022-12-13T21:28:35.047Z,88.61
2022-12-13T21:31:01.355Z,88.67
2022-12-13T21:33:28.006Z,88.90
2022-12-13T21:35:54.051Z,88.88
2022-12-13T21:38:20.397Z,89.06
2022-12-13T21:40:46.775Z,89.50
2022-12-13T21:43:13.144Z,89.95
2022-12-13T21:45:39.550Z,89.90
2022-12-13T21:48:05.847Z,91.43
2022-12-13T21:50:32.209Z,93.39
2022-12-13T21:52:58.553Z,94.20
2022-12-13T21:55:40.233Z,91.87
2022-12-13T21:57:51.255Z,90.17
2022-12-13T22:00:17.580Z,90.16
2022-12-13T22:02:43.962Z,90.50
2022-12-13T22:05:10.344Z,90.47
2022-12-13T22:07:36.724Z,90.42
2022-12-13T22:10:03.108Z,90.25
2022-12-13T22:12:29.448Z,90.13
2022-12-13T22:14:55.812Z,90.05
2022-12-13T22:17:22.185Z,89.47
2022-12-13T22:19:49.158Z,89.10
2022-12-13T22:22:14.901Z,89.15
2022-12-13T22:24:41.191Z,89.29
2022-12-13T22:27:07.570Z,89.35
2022-12-13T22:29:33.953Z,89.38
2022-12-13T22:32:00.296Z,89.68
2022-12-13T22:34:26.610Z,89.67
2022-12-13T22:36:52.947Z,89.64
2022-12-13T22:39:19.274Z,89.87
2022-12-13T22:41:45.652Z,90.19
2022-12-13T22:44:11.966Z,90.46
2022-12-13T22:46:38.340Z,90.40
2022-12-13T22:49:04.687Z,90.63
2022-12-13T22:51:31.024Z,90.74
2022-12-13T22:53:57.339Z,90.84
2022-12-13T22:56:23.686Z,90.95
2022-12-13T22:58:50.116Z,90.81
2022-12-13T23:01:16.640Z,90.99
2022-12-13T23:03:42.852Z,91.18
2022-12-13T23:06:09.241Z,91.19
2022-12-13T23:08:40.243Z,91.39
2022-12-13T23:11:01.895Z,91.48
2022-12-13T23:13:28.282Z,91.74
2022-12-13T23:15:54.704Z,92.17
2022-12-13T23:18:21.129Z,92.35
2022-12-13T23:20:48.539Z,92.55
2022-12-13T23:23:13.771Z,92.91
2022-12-13T23:25:42.720Z,92.97
2022-12-13T23:28:09.031Z,92.94
2022-12-13T23:30:35.466Z,92.78
2022-12-13T23:33:01.820Z,93.07
2022-12-13T23:35:28.314Z,93.14
2022-12-13T23:37:54.697Z,93.04
2022-12-13T23:40:21.082Z,93.12
2022-12-13T23:42:47.436Z,93.20
2022-12-13T23:45:13.769Z,93.43
2022-12-13T23:47:40.162Z,93.23
2022-12-13T23:50:06.550Z,93.31
2022-12-13T23:52:32.896Z,93.35
2022-12-13T23:54:59.248Z,93.13
2022-12-13T23:57:25.617Z,93.15
2022-12-13T23:59:51.944Z,92.70
